TimeEDT,TemperatureF,Dew PointF,Humidity,Sea Level PressureIn,VisibilityMPH,Wind Direction,Wind SpeedMPH,Gust SpeedMPH,PrecipitationIn,Events,Conditions,WindDirDegrees,DateUTC
12:56 AM,66.0,63.0,90,29.92,10.0,Calm,Calm,-,N/A,,Clear,0,2012-09-07 04:56:00
1:56 AM,64.4,62.6,94,29.96,7.0,Calm,Calm,-,N/A,,Scattered Clouds,0,2012-09-07 05:56:00
2:45 AM,62.6,60.8,94,29.95,2.0,Calm,Calm,-,N/A,,Clear,0,2012-09-07 06:45:00
2:56 AM,64.0,62.1,93,29.91,4.0,Calm,Calm,-,N/A,,Clear,0,2012-09-07 06:56:00
3:19 AM,62.6,60.8,94,29.95,1.8,Calm,Calm,-,N/A,,Clear,0,2012-09-07 07:19:00
3:41 AM,62.6,60.8,94,29.95,0.5,Calm,Calm,-,N/A,Fog,Fog,0,2012-09-07 07:41:00
3:47 AM,62.6,60.8,94,29.95,2.5,South,3.5,-,N/A,,Clear,170,2012-09-07 07:47:00
3:54 AM,64.4,62.6,94,29.95,5.0,SSE,3.5,-,N/A,,Clear,150,2012-09-07 07:54:00
3:56 AM,62.6,62.6,100,29.96,5.0,Calm,Calm,-,N/A,,Clear,0,2012-09-07 07:56:00
4:20 AM,62.6,60.8,94,29.96,0.8,Calm,Calm,-,N/A,,Clear,0,2012-09-07 08:20:00
4:32 AM,60.8,60.8,100,29.96,2.0,Calm,Calm,-,N/A,,Clear,0,2012-09-07 08:32:00
4:38 AM,62.6,60.8,94,29.96,1.8,Calm,Calm,-,N/A,,Partly Cloudy,0,2012-09-07 08:38:00
4:44 AM,62.6,60.8,94,29.96,0.8,Calm,Calm,-,N/A,,Mist,0,2012-09-07 08:44:00
4:49 AM,62.6,60.8,94,29.96,0.2,Calm,Calm,-,N/A,Fog,Fog,0,2012-09-07 08:49:00
4:56 AM,62.1,60.1,93,29.92,0.2,Calm,Calm,-,N/A,Fog,Fog,0,2012-09-07 08:56:00
5:17 AM,62.6,60.8,94,29.97,0.5,Calm,Calm,-,N/A,Fog,Fog,0,2012-09-07 09:17:00
5:34 AM,60.8,60.8,100,29.97,0.2,Calm,Calm,-,N/A,Fog,Fog,0,2012-09-07 09:34:00
5:53 AM,62.6,60.8,94,29.97,0.2,Calm,Calm,-,N/A,Fog,Fog,0,2012-09-07 09:53:00
5:56 AM,62.1,61.0,96,29.93,0.5,Calm,Calm,-,N/A,Fog,Fog,0,2012-09-07 09:56:00
6:03 AM,60.8,60.8,100,29.97,0.2,Calm,Calm,-,N/A,Fog,Fog,0,2012-09-07 10:03:00
6:30 AM,60.8,59.0,94,29.97,1.0,Calm,Calm,-,N/A,,Mist,0,2012-09-07 10:30:00
6:40 AM,60.8,57.2,88,29.98,0.5,Calm,Calm,-,N/A,Fog,Fog,0,2012-09-07 10:40:00
6:56 AM,60.1,57.9,93,29.95,0.5,Calm,Calm,-,N/A,Fog,Fog,0,2012-09-07 10:56:00
7:04 AM,60.8,60.8,100,29.98,0.2,Calm,Calm,-,N/A,Fog,Fog,0,2012-09-07 11:04:00
7:15 AM,60.8,59.0,94,29.98,0.2,Calm,Calm,-,N/A,Fog,Fog,0,2012-09-07 11:15:00
7:48 AM,62.6,60.8,94,29.98,0.5,Calm,Calm,-,N/A,Fog,Fog,0,2012-09-07 11:48:00
7:56 AM,64.0,62.1,93,29.94,2.0,Calm,Calm,-,N/A,,Clear,0,2012-09-07 11:56:00
8:17 AM,60.8,60.8,100,29.99,1.5,Calm,Calm,-,N/A,,Clear,0,2012-09-07 12:17:00
8:38 AM,62.6,60.8,94,29.99,0.8,ENE,3.5,-,N/A,,Mist,70,2012-09-07 12:38:00
8:51 AM,64.4,62.6,94,29.99,1.5,Calm,Calm,-,N/A,,Partly Cloudy,0,2012-09-07 12:51:00
8:53 AM,64.4,62.6,94,29.99,3.0,ENE,3.5,-,N/A,,Partly Cloudy,70,2012-09-07 12:53:00
8:56 AM,63.0,62.1,97,29.96,3.0,ENE,3.5,-,N/A,,Partly Cloudy,70,2012-09-07 12:56:00
9:56 AM,70.0,64.0,81,29.96,10.0,Calm,Calm,-,N/A,,Clear,0,2012-09-07 13:56:00
10:56 AM,75.0,64.9,71,29.95,10.0,SSW,5.8,-,N/A,,Clear,200,2012-09-07 14:56:00
11:56 AM,79.0,59.0,50,29.93,10.0,South,6.9,-,N/A,,Clear,180,2012-09-07 15:56:00
12:56 PM,80.1,57.9,47,29.92,10.0,West,5.8,-,N/A,,Partly Cloudy,260,2012-09-07 16:56:00
1:56 PM,80.1,60.1,50,29.91,10.0,SSW,6.9,-,N/A,,Mostly Cloudy,210,2012-09-07 17:56:00
2:56 PM,81.0,60.1,49,29.89,10.0,South,5.8,-,N/A,,Scattered Clouds,190,2012-09-07 18:56:00
3:56 PM,79.0,60.1,52,29.88,10.0,South,8.1,-,N/A,,Partly Cloudy,190,2012-09-07 19:56:00
4:56 PM,75.9,61.0,60,29.88,10.0,SSW,3.5,-,N/A,,Clear,200,2012-09-07 20:56:00
5:56 PM,75.0,63.0,66,29.87,10.0,SW,3.5,-,N/A,,Clear,230,2012-09-07 21:56:00
6:56 PM,73.0,64.0,73,29.86,10.0,WSW,4.6,-,N/A,,Clear,250,2012-09-07 22:56:00
7:56 PM,70.0,64.0,81,29.85,10.0,South,3.5,-,N/A,,Clear,170,2012-09-07 23:56:00
8:56 PM,71.1,62.1,73,29.84,10.0,Calm,Calm,-,N/A,,Partly Cloudy,0,2012-09-08 00:56:00
9:56 PM,68.0,60.1,76,29.79,10.0,Calm,Calm,-,N/A,,Clear,0,2012-09-08 01:56:00
10:56 PM,69.1,62.1,78,29.79,10.0,SSE,4.6,-,N/A,,Clear,150,2012-09-08 02:56:00
11:56 PM,68.0,63.0,84,29.77,10.0,SE,4.6,-,N/A,,Clear,130,2012-09-08 03:56:00